createdAt,value
2019-06-15T00:00:23.873Z,61.46
2019-06-15T00:01:23.856Z,61.66
2019-06-15T00:02:23.832Z,61.99
2019-06-15T00:03:23.831Z,62.48
2019-06-15T00:04:23.785Z,62.05
2019-06-15T00:05:23.773Z,61.99
2019-06-15T00:06:23.754Z,61.69
2019-06-15T00:07:23.724Z,61.79
2019-06-15T00:08:23.737Z,62.55
2019-06-15T00:09:23.686Z,62.45
2019-06-15T00:10:23.660Z,62.78
2019-06-15T00:11:23.647Z,62.78
2019-06-15T00:12:23.625Z,62.48
2019-06-15T00:13:23.633Z,62.35
2019-06-15T00:14:23.589Z,62.45
2019-06-15T00:15:23.559Z,62.48
2019-06-15T00:16:23.540Z,62.48
2019-06-15T00:17:23.514Z,62.48
2019-06-15T00:18:23.516Z,62.55
2019-06-15T00:19:23.487Z,62.68
2019-06-15T00:20:23.477Z,62.48
2019-06-15T00:21:23.440Z,62.48
2019-06-15T00:22:23.421Z,62.48
2019-06-15T00:23:23.413Z,62.48
2019-06-15T00:24:35.041Z,62.88
2019-06-15T00:25:23.354Z,63.18
2019-06-15T00:26:23.334Z,63.18
2019-06-15T00:27:23.304Z,63.18
2019-06-15T00:28:23.308Z,63.05
2019-06-15T00:29:23.274Z,63.38
2019-06-15T00:30:23.254Z,63.05
2019-06-15T00:31:23.219Z,63.35
2019-06-15T00:32:23.198Z,63.45
2019-06-15T00:33:23.203Z,63.65
2019-06-15T00:34:23.158Z,63.45
2019-06-15T00:35:23.137Z,63.85
2019-06-15T00:36:23.121Z,63.55
2019-06-15T00:37:23.106Z,63.68
2019-06-15T00:38:23.100Z,63.55
2019-06-15T00:39:23.053Z,63.95
2019-06-15T00:40:23.029Z,64.04
2019-06-15T00:41:23.010Z,64.04
2019-06-15T00:42:22.984Z,64.37
2019-06-15T00:43:22.996Z,64.67
2019-06-15T00:44:22.945Z,64.67
2019-06-15T00:45:22.923Z,64.97
2019-06-15T00:46:22.907Z,64.37
2019-06-15T00:47:22.963Z,64.48
2019-06-15T00:48:22.889Z,65.17
2019-06-15T00:49:22.842Z,64.87
2019-06-15T00:50:22.822Z,64.48
2019-06-15T00:51:22.798Z,64.67
2019-06-15T00:52:22.777Z,64.87
2019-06-15T00:53:22.782Z,65.37
2019-06-15T00:54:22.739Z,64.67
2019-06-15T00:55:22.725Z,65.08
2019-06-15T00:56:22.695Z,64.97
2019-06-15T00:57:22.675Z,64.78
2019-06-15T00:58:22.680Z,64.97
2019-06-15T00:59:22.634Z,65.47
2019-06-15T01:00:22.612Z,65.17
2019-06-15T01:01:22.590Z,65.67
2019-06-15T01:02:22.570Z,65.67
2019-06-15T01:03:22.568Z,65.67
2019-06-15T01:04:22.550Z,65.47
2019-06-15T01:05:22.509Z,65.37
2019-06-15T01:06:22.478Z,65.47
2019-06-15T01:07:22.458Z,65.87
2019-06-15T01:08:22.475Z,65.67
2019-06-15T01:09:22.419Z,65.67
2019-06-15T01:10:22.430Z,65.87
2019-06-15T01:11:22.376Z,66.27
2019-06-15T01:12:22.353Z,65.97
2019-06-15T01:13:22.354Z,66.17
2019-06-15T01:14:22.316Z,66.07
2019-06-15T01:15:22.291Z,66.17
2019-06-15T01:16:22.270Z,66.27
2019-06-15T01:17:22.265Z,66.47
2019-06-15T01:18:22.252Z,66.47
2019-06-15T01:19:22.204Z,66.37
2019-06-15T01:20:22.183Z,66.57
2019-06-15T01:21:22.162Z,66.90
2019-06-15T01:22:22.177Z,66.47
2019-06-15T01:23:22.141Z,66.97
2019-06-15T01:24:22.108Z,67.27
2019-06-15T01:25:22.081Z,67.30
2019-06-15T01:26:22.056Z,67.10
2019-06-15T01:27:22.115Z,66.90
2019-06-15T01:28:22.012Z,67.60
2019-06-15T01:29:22.020Z,67.00
2019-06-15T01:30:21.977Z,66.90
2019-06-15T01:31:21.950Z,66.97
2019-06-15T01:32:21.929Z,67.17
2019-06-15T01:33:21.919Z,67.27
2019-06-15T01:34:21.908Z,67.60
2019-06-15T01:35:21.869Z,67.70
2019-06-15T01:36:21.842Z,67.60
2019-06-15T01:37:21.824Z,67.80
2019-06-15T01:38:21.800Z,67.80
2019-06-15T01:39:21.805Z,68.00
2019-06-15T01:40:21.753Z,68.00
2019-06-15T01:41:21.739Z,67.70
2019-06-15T01:42:21.715Z,67.80
2019-06-15T01:43:21.700Z,67.70
2019-06-15T01:44:21.711Z,67.90
2019-06-15T01:45:21.653Z,68.00
2019-06-15T01:46:21.626Z,67.70
2019-06-15T01:47:21.606Z,68.00
2019-06-15T01:48:21.584Z,67.80
2019-06-15T01:49:21.605Z,67.80
2019-06-15T01:50:21.547Z,68.19
2019-06-15T01:51:21.533Z,68.00
2019-06-15T01:52:21.509Z,68.10
2019-06-15T01:53:21.480Z,68.00
2019-06-15T01:54:21.494Z,68.10
2019-06-15T01:55:21.511Z,68.60
2019-06-15T01:56:21.426Z,68.70
2019-06-15T01:57:21.401Z,68.49
2019-06-15T01:58:21.379Z,68.60
2019-06-15T01:59:21.371Z,68.49
2019-06-15T02:00:21.333Z,68.30
2019-06-15T02:01:21.311Z,68.60
2019-06-15T02:02:21.300Z,68.49
2019-06-15T02:03:21.263Z,68.79
2019-06-15T02:04:21.268Z,68.70
2019-06-15T02:05:21.222Z,68.79
2019-06-15T02:06:21.202Z,68.70
2019-06-15T02:07:21.179Z,68.79
2019-06-15T02:08:21.164Z,68.70
2019-06-15T02:09:21.161Z,68.90
2019-06-15T02:10:21.113Z,68.90
2019-06-15T02:11:21.096Z,68.79
2019-06-15T02:12:21.076Z,68.60
2019-06-15T02:13:21.049Z,68.79
2019-06-15T02:14:21.056Z,68.90
2019-06-15T02:15:21.009Z,68.99
2019-06-15T02:16:20.990Z,68.90
2019-06-15T02:17:20.965Z,68.90
2019-06-15T02:18:20.950Z,69.09
2019-06-15T02:19:20.954Z,68.90
2019-06-15T02:20:20.903Z,68.79
2019-06-15T02:21:20.883Z,69.09
2019-06-15T02:22:20.861Z,68.99
2019-06-15T02:23:20.844Z,68.99
2019-06-15T02:24:20.842Z,69.09
2019-06-15T02:25:34.593Z,69.39
2019-06-15T02:26:20.779Z,69.29
2019-06-15T02:27:20.757Z,69.29
2019-06-15T02:28:20.736Z,69.20
2019-06-15T02:29:20.735Z,69.39
2019-06-15T02:30:20.687Z,69.29
2019-06-15T02:31:20.670Z,69.39
2019-06-15T02:32:20.649Z,69.49
2019-06-15T02:33:20.630Z,69.29
2019-06-15T02:34:20.626Z,69.39
2019-06-15T02:35:20.586Z,69.69
2019-06-15T02:36:20.563Z,69.59
2019-06-15T02:37:20.542Z,69.59
2019-06-15T02:38:20.529Z,69.69
2019-06-15T02:39:20.519Z,69.49
2019-06-15T02:40:20.477Z,70.32
2019-06-15T02:41:20.457Z,69.69
2019-06-15T02:42:20.435Z,69.53
2019-06-15T02:43:20.405Z,69.69
2019-06-15T02:44:20.422Z,69.92
2019-06-15T02:45:20.386Z,69.73
2019-06-15T02:46:20.343Z,69.82
2019-06-15T02:47:20.321Z,70.42
2019-06-15T02:48:20.309Z,70.92
2019-06-15T02:49:20.284Z,70.53
2019-06-15T02:50:20.279Z,71.12
2019-06-15T02:51:20.249Z,71.32
2019-06-15T02:52:20.216Z,70.42
2019-06-15T02:53:20.198Z,70.32
2019-06-15T02:54:20.188Z,70.32
2019-06-15T02:55:20.175Z,70.83
2019-06-15T02:56:20.130Z,70.72
2019-06-15T02:57:20.113Z,70.62
2019-06-15T02:58:20.084Z,70.92
2019-06-15T02:59:20.068Z,70.59
2019-06-15T03:00:20.066Z,70.23
2019-06-15T03:01:20.023Z,70.19
2019-06-15T03:02:20.021Z,71.22
2019-06-15T03:03:19.978Z,70.72
2019-06-15T03:04:19.953Z,70.42
2019-06-15T03:05:19.954Z,70.39
2019-06-15T03:06:19.917Z,70.49
2019-06-15T03:07:19.889Z,71.22
2019-06-15T03:08:19.878Z,71.12
2019-06-15T03:09:19.851Z,71.12
2019-06-15T03:10:19.850Z,71.32
2019-06-15T03:11:19.806Z,71.32
2019-06-15T03:12:19.784Z,71.12
2019-06-15T03:13:19.761Z,70.42
2019-06-15T03:14:19.739Z,71.02
2019-06-15T03:15:20.322Z,71.12
2019-06-15T03:16:19.697Z,71.22
2019-06-15T03:17:19.684Z,71.02
2019-06-15T03:18:19.655Z,71.52
2019-06-15T03:19:19.641Z,71.32
2019-06-15T03:20:19.635Z,71.92
2019-06-15T03:21:19.592Z,72.52
2019-06-15T03:22:19.572Z,72.52
2019-06-15T03:23:19.545Z,72.22
2019-06-15T03:24:19.524Z,72.42
2019-06-15T03:25:19.671Z,72.12
2019-06-15T03:26:19.528Z,72.12
2019-06-15T03:27:19.470Z,72.12
2019-06-15T03:28:19.436Z,72.12
2019-06-15T03:29:19.421Z,72.42
2019-06-15T03:30:19.422Z,71.82
2019-06-15T03:31:19.375Z,72.72
2019-06-15T03:32:19.354Z,72.02
2019-06-15T03:33:19.339Z,72.08
2019-06-15T03:34:19.312Z,72.52
2019-06-15T03:35:19.320Z,72.12
2019-06-15T03:36:19.273Z,72.58
2019-06-15T03:37:19.244Z,72.38
2019-06-15T03:38:19.222Z,72.68
2019-06-15T03:39:19.200Z,72.19
2019-06-15T03:40:19.207Z,72.88
2019-06-15T03:41:19.160Z,72.42
2019-06-15T03:42:19.136Z,72.62
2019-06-15T03:43:19.115Z,72.78
2019-06-15T03:44:19.095Z,72.81
2019-06-15T03:45:19.120Z,72.52
2019-06-15T03:46:19.052Z,72.68
2019-06-15T03:47:19.031Z,72.72
2019-06-15T03:48:19.009Z,72.88
2019-06-15T03:49:18.984Z,72.81
2019-06-15T03:50:18.987Z,72.81
2019-06-15T03:51:18.944Z,72.88
2019-06-15T03:52:18.952Z,72.68
2019-06-15T03:53:18.905Z,72.68
2019-06-15T03:54:18.884Z,72.78
2019-06-15T03:55:18.885Z,72.88
2019-06-15T03:56:21.912Z,73.08
2019-06-15T03:57:18.818Z,73.28
2019-06-15T03:58:18.794Z,73.28
2019-06-15T03:59:18.775Z,73.18
2019-06-15T04:00:18.783Z,73.18
2019-06-15T04:01:18.729Z,73.28
2019-06-15T04:02:18.741Z,73.98
2019-06-15T04:03:18.695Z,73.91
2019-06-15T04:04:19.343Z,74.32
2019-06-15T04:05:18.646Z,74.18
2019-06-15T04:06:18.662Z,74.41
2019-06-15T04:07:18.601Z,74.41
2019-06-15T04:08:18.582Z,74.18
2019-06-15T04:09:18.565Z,74.11
2019-06-15T04:10:18.540Z,74.51
2019-06-15T04:11:18.542Z,74.28
2019-06-15T04:12:18.496Z,74.32
2019-06-15T04:13:18.473Z,74.32
2019-06-15T04:14:18.500Z,74.28
2019-06-15T04:15:18.439Z,74.18
2019-06-15T04:16:18.435Z,74.38
2019-06-15T04:17:18.397Z,74.28
2019-06-15T04:18:18.367Z,73.98
2019-06-15T04:19:18.353Z,73.58
2019-06-15T04:20:18.336Z,74.04
2019-06-15T04:21:18.326Z,73.74
2019-06-15T04:22:18.283Z,73.35
2019-06-15T04:23:18.261Z,73.65
2019-06-15T04:24:18.253Z,73.65
2019-06-15T04:25:18.220Z,73.14
2019-06-15T04:26:18.220Z,74.24
2019-06-15T04:27:18.176Z,74.24
2019-06-15T04:28:18.155Z,73.14
2019-06-15T04:29:18.146Z,73.55
2019-06-15T04:30:18.118Z,73.44
2019-06-15T04:31:18.115Z,73.91
2019-06-15T04:32:18.069Z,72.61
2019-06-15T04:33:18.051Z,72.81
2019-06-15T04:34:18.044Z,71.98
2019-06-15T04:35:18.007Z,72.38
2019-06-15T04:36:18.013Z,72.25
2019-06-15T04:37:17.969Z,72.38
2019-06-15T04:38:17.944Z,71.84
2019-06-15T04:39:17.928Z,72.05
2019-06-15T04:40:17.904Z,72.34
2019-06-15T04:41:17.921Z,71.45
2019-06-15T04:42:17.890Z,71.84
2019-06-15T04:43:17.845Z,71.22
2019-06-15T04:44:17.910Z,71.84
2019-06-15T04:45:17.820Z,71.95
2019-06-15T04:46:17.808Z,72.05
2019-06-15T04:47:17.757Z,71.84
2019-06-15T04:48:17.738Z,71.95
2019-06-15T04:49:17.727Z,72.05
2019-06-15T04:50:17.704Z,71.45
2019-06-15T04:51:17.702Z,72.44
2019-06-15T04:52:17.681Z,72.25
2019-06-15T04:53:17.666Z,72.74
2019-06-15T04:54:17.615Z,72.68
2019-06-15T04:55:17.593Z,72.28
2019-06-15T04:56:17.642Z,72.18
2019-06-15T04:57:17.553Z,72.68
2019-06-15T04:58:17.536Z,72.38
2019-06-15T04:59:17.519Z,72.68
2019-06-15T05:00:17.516Z,72.74
2019-06-15T05:01:17.473Z,72.55
2019-06-15T05:02:17.477Z,71.84
2019-06-15T05:03:17.436Z,72.11
2019-06-15T05:04:17.414Z,70.82
2019-06-15T05:05:17.389Z,70.92
2019-06-15T05:06:17.385Z,70.68
2019-06-15T05:07:17.383Z,69.79
2019-06-15T05:08:17.335Z,69.56
2019-06-15T05:09:17.314Z,69.56
2019-06-15T05:10:17.288Z,69.66
2019-06-15T05:11:17.271Z,69.06
2019-06-15T05:12:17.273Z,69.06
2019-06-15T05:13:17.232Z,69.43
2019-06-15T05:14:17.212Z,69.13
2019-06-15T05:15:17.356Z,68.60
2019-06-15T05:16:17.198Z,68.70
2019-06-15T05:17:18.191Z,67.87
2019-06-15T05:18:17.171Z,67.34
2019-06-15T05:19:17.116Z,66.75
2019-06-15T05:20:19.866Z,66.82
2019-06-15T05:21:17.089Z,65.46
2019-06-15T05:22:17.084Z,65.92
2019-06-15T05:23:17.045Z,65.63
2019-06-15T05:24:17.015Z,66.32
2019-06-15T05:25:17.013Z,66.32
2019-06-15T05:26:16.981Z,66.19
2019-06-15T05:27:16.991Z,66.19
2019-06-15T05:28:16.960Z,65.17
2019-06-15T05:29:16.921Z,64.84
2019-06-15T05:30:16.905Z,64.24
2019-06-15T05:31:16.891Z,64.17
2019-06-15T05:32:16.893Z,64.54
2019-06-15T05:33:16.852Z,64.24
2019-06-15T05:34:16.829Z,64.37
2019-06-15T05:35:16.809Z,63.95
2019-06-15T05:36:16.792Z,64.44
2019-06-15T05:37:16.800Z,65.26
2019-06-15T05:38:16.764Z,65.23
2019-06-15T05:39:23.777Z,65.03
2019-06-15T05:40:16.741Z,64.97
2019-06-15T05:41:16.703Z,64.17
2019-06-15T05:42:16.705Z,64.24
2019-06-15T05:43:16.665Z,65.03
2019-06-15T05:44:16.660Z,64.74
2019-06-15T05:45:16.632Z,64.54
2019-06-15T05:46:16.609Z,64.44
2019-06-15T05:47:16.615Z,64.14
2019-06-15T05:48:16.579Z,64.44
2019-06-15T05:49:16.636Z,64.44
2019-06-15T05:50:16.562Z,64.97
2019-06-15T05:51:16.524Z,65.26
2019-06-15T05:52:16.529Z,65.17
2019-06-15T05:53:16.487Z,65.49
2019-06-15T05:54:16.466Z,65.49
2019-06-15T05:55:16.451Z,65.36
2019-06-15T05:56:16.431Z,65.17
2019-06-15T05:57:21.627Z,65.63
2019-06-15T05:58:16.395Z,64.44
2019-06-15T05:59:16.382Z,64.44
2019-06-15T06:00:16.359Z,64.14
2019-06-15T06:01:16.349Z,63.85
2019-06-15T06:02:16.345Z,63.52
2019-06-15T06:03:16.309Z,63.52
2019-06-15T06:04:16.293Z,63.42
2019-06-15T06:05:16.314Z,63.52
2019-06-15T06:06:16.268Z,63.71
2019-06-15T06:07:16.271Z,63.62
2019-06-15T06:08:16.222Z,63.92
2019-06-15T06:09:16.201Z,64.11
2019-06-15T06:10:16.190Z,63.82
2019-06-15T06:11:16.172Z,63.89
2019-06-15T06:12:16.172Z,63.06
2019-06-15T06:13:16.130Z,62.27
2019-06-15T06:14:16.117Z,63.19
2019-06-15T06:15:16.097Z,62.99
2019-06-15T06:16:16.090Z,63.39
2019-06-15T06:17:16.085Z,63.68
2019-06-15T06:18:16.046Z,62.99
2019-06-15T06:19:16.030Z,63.29
2019-06-15T06:20:16.009Z,63.39
2019-06-15T06:21:15.991Z,63.71
2019-06-15T06:22:15.975Z,63.92
2019-06-15T06:23:15.985Z,64.74
2019-06-15T06:24:15.950Z,64.64
2019-06-15T06:25:15.926Z,65.03
2019-06-15T06:26:15.912Z,64.84
2019-06-15T06:27:15.893Z,64.54
2019-06-15T06:28:15.918Z,64.57
2019-06-15T06:29:15.873Z,64.67
2019-06-15T06:30:15.839Z,64.34
2019-06-15T06:31:16.403Z,63.82
2019-06-15T06:32:15.804Z,64.11
2019-06-15T06:33:15.807Z,63.39
2019-06-15T06:34:15.785Z,63.09
2019-06-15T06:35:15.749Z,63.06
2019-06-15T06:36:15.739Z,63.36
2019-06-15T06:37:15.720Z,63.46
2019-06-15T06:38:15.746Z,63.56
2019-06-15T06:39:15.679Z,63.46
2019-06-15T06:40:15.663Z,62.99
2019-06-15T06:41:15.649Z,64.08
2019-06-15T06:42:15.631Z,64.01
2019-06-15T06:43:15.637Z,64.31
2019-06-15T06:44:15.595Z,63.71
2019-06-15T06:45:15.580Z,63.85
2019-06-15T06:46:15.559Z,63.75
2019-06-15T06:47:15.549Z,64.04
2019-06-15T06:48:15.621Z,64.14
2019-06-15T06:49:15.518Z,65.06
2019-06-15T06:50:15.492Z,64.67
2019-06-15T06:51:15.471Z,64.67
2019-06-15T06:52:15.459Z,65.66
2019-06-15T06:53:15.462Z,65.46
2019-06-15T06:54:15.425Z,65.49
2019-06-15T06:55:15.397Z,65.59
2019-06-15T06:56:15.380Z,65.39
2019-06-15T06:57:15.375Z,65.17
2019-06-15T06:58:15.370Z,64.97
2019-06-15T06:59:15.331Z,64.97
2019-06-15T07:00:15.316Z,64.34
2019-06-15T07:01:15.296Z,64.37
2019-06-15T07:02:15.278Z,65.17
2019-06-15T07:03:15.302Z,64.44
2019-06-15T07:04:15.239Z,64.54
2019-06-15T07:05:15.222Z,64.31
2019-06-15T07:06:15.206Z,64.31
2019-06-15T07:07:15.207Z,63.71
2019-06-15T07:08:15.193Z,63.42
2019-06-15T07:09:15.149Z,64.11
2019-06-15T07:10:15.141Z,64.08
2019-06-15T07:11:15.116Z,63.89
2019-06-15T07:12:15.116Z,64.18
2019-06-15T07:13:15.112Z,63.16
2019-06-15T07:14:15.066Z,62.54
2019-06-15T07:15:15.042Z,62.54
2019-06-15T07:16:15.028Z,61.94
2019-06-15T07:17:15.019Z,60.36
2019-06-15T07:18:15.014Z,61.52
2019-06-15T07:19:14.977Z,60.33
2019-06-15T07:20:14.955Z,60.80
2019-06-15T07:21:14.956Z,60.70
2019-06-15T07:22:14.920Z,61.79
2019-06-15T07:23:14.932Z,61.07
2019-06-15T07:24:14.900Z,60.60
2019-06-15T07:25:14.873Z,60.21
2019-06-15T07:26:14.866Z,60.38
2019-06-15T07:27:14.840Z,61.00
2019-06-15T07:28:14.860Z,61.10
2019-06-15T07:29:14.801Z,61.52
2019-06-15T07:30:14.814Z,61.22
2019-06-15T07:31:14.774Z,61.42
2019-06-15T07:32:14.753Z,61.91
2019-06-15T07:33:14.743Z,61.72
2019-06-15T07:34:14.741Z,61.62
2019-06-15T07:35:14.707Z,61.79
2019-06-15T07:36:14.680Z,61.10
2019-06-15T07:37:14.673Z,61.69
2019-06-15T07:38:14.655Z,60.77
2019-06-15T07:39:14.666Z,60.25
2019-06-15T07:40:14.622Z,59.46
2019-06-15T07:41:14.610Z,59.23
2019-06-15T07:42:14.584Z,59.14
2019-06-15T07:43:15.439Z,59.50
2019-06-15T07:44:14.587Z,58.81
2019-06-15T07:45:14.546Z,58.81
2019-06-15T07:46:14.526Z,58.59
2019-06-15T07:47:14.506Z,58.59
2019-06-15T07:48:14.542Z,58.26
2019-06-15T07:49:14.500Z,58.56
2019-06-15T07:50:14.459Z,57.28
2019-06-15T07:51:14.450Z,57.28
2019-06-15T07:52:14.434Z,57.35
2019-06-15T07:53:14.429Z,56.93
2019-06-15T07:54:14.489Z,56.80
2019-06-15T07:55:14.389Z,55.91
2019-06-15T07:56:14.362Z,55.82
2019-06-15T07:57:14.345Z,56.51
2019-06-15T07:58:24.120Z,56.41
2019-06-15T07:59:14.341Z,56.11
2019-06-15T08:00:14.364Z,55.89
2019-06-15T08:01:14.295Z,55.30
2019-06-15T08:02:14.273Z,55.89
2019-06-15T08:03:14.261Z,56.31
2019-06-15T08:04:14.272Z,56.01
2019-06-15T08:05:14.235Z,56.24
2019-06-15T08:06:14.214Z,57.54
2019-06-15T08:07:14.201Z,57.32
2019-06-15T08:08:14.186Z,57.45
2019-06-15T08:09:14.200Z,57.64
2019-06-15T08:10:14.162Z,57.22
2019-06-15T08:11:14.148Z,58.04
2019-06-15T08:12:14.128Z,57.42
2019-06-15T08:13:14.124Z,57.64
2019-06-15T08:14:14.126Z,57.54
2019-06-15T08:15:14.942Z,57.45
2019-06-15T08:16:14.066Z,57.54
2019-06-15T08:17:14.051Z,57.64
2019-06-15T08:18:14.036Z,57.64
2019-06-15T08:19:14.047Z,57.54
2019-06-15T08:20:14.011Z,58.26
2019-06-15T08:21:13.995Z,57.77
2019-06-15T08:22:13.978Z,58.36
2019-06-15T08:23:13.966Z,58.00
2019-06-15T08:24:13.982Z,58.29
2019-06-15T08:25:13.944Z,58.59
2019-06-15T08:26:13.924Z,58.51
2019-06-15T08:27:14.128Z,58.22
2019-06-15T08:28:14.054Z,59.20
2019-06-15T08:29:13.908Z,58.91
2019-06-15T08:30:13.861Z,58.71
2019-06-15T08:31:13.859Z,58.98
2019-06-15T08:32:13.832Z,58.88
2019-06-15T08:33:13.814Z,58.78
2019-06-15T08:34:13.827Z,58.12
2019-06-15T08:35:13.781Z,58.32
2019-06-15T08:36:13.767Z,58.71
2019-06-15T08:37:13.763Z,59.20
2019-06-15T08:38:13.735Z,58.71
2019-06-15T08:39:13.742Z,59.33
2019-06-15T08:40:13.698Z,59.14
2019-06-15T08:41:13.687Z,59.30
2019-06-15T08:42:13.667Z,59.80
2019-06-15T08:43:13.664Z,59.20
2019-06-15T08:44:13.678Z,58.98
2019-06-15T08:45:13.625Z,58.78
2019-06-15T08:46:13.603Z,59.17
2019-06-15T08:47:13.655Z,59.17
2019-06-15T08:48:13.578Z,59.15
2019-06-15T08:49:13.584Z,58.95
2019-06-15T08:50:13.550Z,58.46
2019-06-15T08:51:14.497Z,58.56
2019-06-15T08:52:13.518Z,57.64
2019-06-15T08:53:17.019Z,57.84
2019-06-15T08:54:13.481Z,57.94
2019-06-15T08:55:13.491Z,57.84
2019-06-15T08:56:13.462Z,57.54
2019-06-15T08:57:13.441Z,58.04
2019-06-15T08:58:13.419Z,58.14
2019-06-15T08:59:13.414Z,57.94
2019-06-15T09:00:13.418Z,58.14
2019-06-15T09:01:13.373Z,58.14
2019-06-15T09:02:13.415Z,57.74
2019-06-15T09:03:13.344Z,57.51
2019-06-15T09:04:13.530Z,57.91
2019-06-15T09:05:13.334Z,58.20
2019-06-15T09:06:13.293Z,58.01
2019-06-15T09:07:13.276Z,57.51
2019-06-15T09:08:13.276Z,58.11
2019-06-15T09:09:15.943Z,57.22
2019-06-15T09:10:13.259Z,57.32
2019-06-15T09:11:13.219Z,58.04
2019-06-15T09:12:13.202Z,58.23
2019-06-15T09:13:13.221Z,58.62
2019-06-15T09:14:13.175Z,58.60
2019-06-15T09:15:13.180Z,58.11
2019-06-15T09:16:13.150Z,58.50
2019-06-15T09:17:14.962Z,58.30
2019-06-15T09:18:13.386Z,58.30
2019-06-15T09:19:13.962Z,58.40
2019-06-15T09:20:13.125Z,57.32
2019-06-15T09:21:13.062Z,58.50
2019-06-15T09:22:13.053Z,58.40
2019-06-15T09:23:13.975Z,58.43
2019-06-15T09:24:13.016Z,58.33
2019-06-15T09:25:13.069Z,57.84
2019-06-15T09:26:12.990Z,57.32
2019-06-15T09:27:12.974Z,58.33
2019-06-15T09:28:14.540Z,58.14
2019-06-15T09:29:13.019Z,58.23
2019-06-15T09:30:12.946Z,58.14
2019-06-15T09:31:12.903Z,58.33
2019-06-15T09:32:12.891Z,58.01
2019-06-15T09:33:12.874Z,57.71
2019-06-15T09:34:18.948Z,57.29
2019-06-15T09:35:12.869Z,57.59
2019-06-15T09:36:12.852Z,56.90
2019-06-15T09:37:12.815Z,57.39
2019-06-15T09:38:12.795Z,56.87
2019-06-15T09:39:14.652Z,56.38
2019-06-15T09:40:12.791Z,56.26
2019-06-15T09:41:12.750Z,55.76
2019-06-15T09:42:12.777Z,55.93
2019-06-15T09:43:12.719Z,55.93
2019-06-15T09:44:12.707Z,54.24
2019-06-15T09:45:13.471Z,54.04
2019-06-15T09:46:12.673Z,53.94
2019-06-15T09:47:12.664Z,54.11
2019-06-15T09:48:12.642Z,54.02
2019-06-15T09:49:12.633Z,52.62
2019-06-15T09:50:12.652Z,52.59
2019-06-15T09:51:12.601Z,52.40
2019-06-15T09:52:12.590Z,52.52
2019-06-15T09:53:12.575Z,52.30
2019-06-15T09:54:17.477Z,52.67
2019-06-15T09:55:15.475Z,53.64
2019-06-15T09:56:13.055Z,52.83
2019-06-15T09:57:12.531Z,52.54
2019-06-15T09:58:12.508Z,52.25
2019-06-15T09:59:25.252Z,52.71
2019-06-15T10:00:12.501Z,51.44
2019-06-15T10:01:12.460Z,51.05
2019-06-15T10:02:12.450Z,51.44
2019-06-15T10:03:12.460Z,51.95
2019-06-15T10:04:12.421Z,52.05
2019-06-15T10:05:12.430Z,52.25
2019-06-15T10:06:12.394Z,52.34
2019-06-15T10:07:12.387Z,51.83
2019-06-15T10:08:12.421Z,51.54
2019-06-15T10:09:12.407Z,51.86
2019-06-15T10:10:12.370Z,51.17
2019-06-15T10:11:12.466Z,51.46
2019-06-15T10:12:12.316Z,51.27
2019-06-15T10:13:12.314Z,52.25
2019-06-15T10:14:12.289Z,51.46
2019-06-15T10:15:12.278Z,51.39
2019-06-15T10:16:12.290Z,51.59
2019-06-15T10:17:12.249Z,51.49
2019-06-15T10:18:12.241Z,52.40
2019-06-15T10:19:12.245Z,53.38
2019-06-15T10:20:12.216Z,52.23
2019-06-15T10:21:12.248Z,52.59
2019-06-15T10:22:12.187Z,52.69
2019-06-15T10:23:12.179Z,52.98
2019-06-15T10:24:12.162Z,53.08
2019-06-15T10:25:12.151Z,52.56
2019-06-15T10:26:12.157Z,52.56
2019-06-15T10:27:12.123Z,53.94
2019-06-15T10:28:12.125Z,52.56
2019-06-15T10:29:12.099Z,53.42
2019-06-15T10:30:12.085Z,52.15
2019-06-15T10:31:12.090Z,52.73
2019-06-15T10:32:12.060Z,52.91
2019-06-15T10:33:12.042Z,53.00
2019-06-15T10:34:12.030Z,52.03
2019-06-15T10:35:12.019Z,51.51
2019-06-15T10:36:12.030Z,51.49
2019-06-15T10:37:11.988Z,51.17
2019-06-15T10:38:11.973Z,50.49
2019-06-15T10:39:11.963Z,49.46
2019-06-15T10:40:11.954Z,50.41
2019-06-15T10:41:11.967Z,49.80
2019-06-15T10:42:11.925Z,49.90
2019-06-15T10:43:11.916Z,48.24
2019-06-15T10:44:11.904Z,47.36
2019-06-15T10:45:11.894Z,46.69
2019-06-15T10:46:11.901Z,47.56
2019-06-15T10:47:11.880Z,48.44
2019-06-15T10:48:11.854Z,48.54
2019-06-15T10:49:11.843Z,47.00
2019-06-15T10:50:11.830Z,49.78
2019-06-15T10:51:11.846Z,48.44
2019-06-15T10:52:11.811Z,49.14
2019-06-15T10:53:11.825Z,49.82
2019-06-15T10:54:11.815Z,49.33
2019-06-15T10:55:11.772Z,49.75
2019-06-15T10:56:11.806Z,49.43
2019-06-15T10:57:11.745Z,49.82
2019-06-15T10:58:11.735Z,48.58
2019-06-15T10:59:11.722Z,49.07
2019-06-15T11:00:11.754Z,49.07
2019-06-15T11:01:11.719Z,50.05
2019-06-15T11:02:11.686Z,49.48
2019-06-15T11:03:11.670Z,47.63
2019-06-15T11:04:11.750Z,46.84
2019-06-15T11:05:11.651Z,47.85
2019-06-15T11:06:11.657Z,48.82
2019-06-15T11:07:11.629Z,49.11
2019-06-15T11:08:11.624Z,47.72
2019-06-15T11:09:11.594Z,47.72
2019-06-15T11:10:11.587Z,45.57
2019-06-15T11:11:11.588Z,47.14
2019-06-15T11:12:11.554Z,46.62
2019-06-15T11:13:11.539Z,47.11
2019-06-15T11:14:11.536Z,45.84
2019-06-15T11:15:11.515Z,46.80
2019-06-15T11:16:11.559Z,45.31
2019-06-15T11:17:11.493Z,45.31
2019-06-15T11:18:11.475Z,45.87
2019-06-15T11:19:11.468Z,45.29
2019-06-15T11:20:11.500Z,45.39
2019-06-15T11:21:11.469Z,46.14
2019-06-15T11:22:11.492Z,45.65
2019-06-15T11:23:11.433Z,44.76
2019-06-15T11:24:11.406Z,44.37
2019-06-15T11:25:11.398Z,43.78
2019-06-15T11:26:11.388Z,44.58
2019-06-15T11:27:11.404Z,44.60
2019-06-15T11:28:11.356Z,45.29
2019-06-15T11:29:11.341Z,44.90
2019-06-15T11:30:14.066Z,45.39
2019-06-15T11:31:11.319Z,45.61
2019-06-15T11:32:11.330Z,45.51
2019-06-15T11:33:11.294Z,45.29
2019-06-15T11:34:11.283Z,45.95
2019-06-15T11:35:11.270Z,45.75
2019-06-15T11:36:11.264Z,45.75
2019-06-15T11:37:11.860Z,45.56
2019-06-15T11:38:11.233Z,45.39
2019-06-15T11:39:11.228Z,45.97
2019-06-15T11:40:11.209Z,45.97
2019-06-15T11:41:11.197Z,46.29
2019-06-15T11:42:11.215Z,45.61
2019-06-15T11:43:11.172Z,47.09
2019-06-15T11:44:11.180Z,48.85
2019-06-15T11:45:11.147Z,46.92
2019-06-15T11:46:11.147Z,47.60
2019-06-15T11:47:11.154Z,47.33
2019-06-15T11:48:11.114Z,48.04
2019-06-15T11:49:11.099Z,48.82
2019-06-15T11:50:12.098Z,48.33
2019-06-15T11:51:11.075Z,47.65
2019-06-15T11:52:11.090Z,49.02
2019-06-15T11:53:11.048Z,47.85
2019-06-15T11:54:11.044Z,47.36
2019-06-15T11:55:11.021Z,48.33
2019-06-15T11:56:11.014Z,48.36
2019-06-15T11:57:11.047Z,48.65
2019-06-15T11:58:10.986Z,48.55
2019-06-15T11:59:10.978Z,49.63
2019-06-15T12:00:10.968Z,49.82
2019-06-15T12:01:10.952Z,47.67
2019-06-15T12:02:10.954Z,48.46
2019-06-15T12:03:10.925Z,47.67
2019-06-15T12:04:10.915Z,47.87
2019-06-15T12:05:10.927Z,48.33
2019-06-15T12:06:10.891Z,47.85
2019-06-15T12:07:10.890Z,47.75
2019-06-15T12:08:10.856Z,48.14
2019-06-15T12:09:10.851Z,47.63
2019-06-15T12:10:10.830Z,47.16
2019-06-15T12:11:10.823Z,46.94
2019-06-15T12:12:10.828Z,47.31
2019-06-15T12:13:10.796Z,46.92
2019-06-15T12:14:10.779Z,46.23
2019-06-15T12:15:10.766Z,46.89
2019-06-15T12:16:10.767Z,45.84
2019-06-15T12:17:10.761Z,45.75
2019-06-15T12:18:10.728Z,46.14
2019-06-15T12:19:10.732Z,47.19
2019-06-15T12:20:10.697Z,46.99
2019-06-15T12:21:10.694Z,45.72
2019-06-15T12:22:10.704Z,45.53
2019-06-15T12:23:10.661Z,45.14
2019-06-15T12:24:10.653Z,45.53
2019-06-15T12:25:10.635Z,45.53
2019-06-15T12:26:10.620Z,45.82
2019-06-15T12:27:10.608Z,45.33
2019-06-15T12:28:10.618Z,45.23
2019-06-15T12:29:10.597Z,46.00
2019-06-15T12:30:10.586Z,46.19
2019-06-15T12:31:10.559Z,46.19
2019-06-15T12:32:10.547Z,46.31
2019-06-15T12:33:10.559Z,46.60
2019-06-15T12:34:10.518Z,46.14
2019-06-15T12:35:10.510Z,45.72
2019-06-15T12:36:18.687Z,45.80
2019-06-15T12:37:10.502Z,45.51
2019-06-15T12:38:10.500Z,46.89
2019-06-15T12:39:10.457Z,47.58
2019-06-15T12:40:10.453Z,46.80
2019-06-15T12:41:10.433Z,46.80
2019-06-15T12:42:10.424Z,46.82
2019-06-15T12:43:10.456Z,47.50
2019-06-15T12:44:10.389Z,47.89
2019-06-15T12:45:10.426Z,47.48
2019-06-15T12:46:10.366Z,48.26
2019-06-15T12:47:10.382Z,47.48
2019-06-15T12:48:10.375Z,47.67
2019-06-15T12:49:10.325Z,48.26
2019-06-15T12:50:10.319Z,46.99
2019-06-15T12:51:10.301Z,46.89
2019-06-15T12:52:10.295Z,46.99